createdAt,value
2018-05-21T00:00:43.885Z,6.87
2018-05-21T00:03:12.049Z,9.17
2018-05-21T00:05:40.206Z,5.30
2018-05-21T00:08:08.402Z,6.30
2018-05-21T00:10:36.589Z,7.70
2018-05-21T00:13:04.733Z,7.10
2018-05-21T00:15:32.891Z,8.03
2018-05-21T00:18:01.049Z,8.70
2018-05-21T00:20:29.223Z,6.93
2018-05-21T00:22:57.371Z,6.20
2018-05-21T00:25:25.544Z,7.27
2018-05-21T00:27:53.696Z,6.03
2018-05-21T00:30:21.851Z,6.73
2018-05-21T00:32:50.002Z,6.28
2018-05-21T00:35:18.159Z,6.27
2018-05-21T00:37:46.350Z,4.90
2018-05-21T00:40:14.484Z,5.60
2018-05-21T00:42:42.648Z,6.33
2018-05-21T00:45:10.795Z,7.47
2018-05-21T00:47:38.979Z,6.80
2018-05-21T00:50:07.139Z,6.47
2018-05-21T00:52:35.280Z,5.70
2018-05-21T00:55:15.879Z,8.13
2018-05-21T00:57:44.034Z,6.17
2018-05-21T01:00:12.192Z,7.33
2018-05-21T01:02:43.597Z,6.30
2018-05-21T01:05:11.833Z,10.13
2018-05-21T01:07:42.885Z,7.20
2018-05-21T01:10:11.052Z,6.90
2018-05-21T01:12:39.190Z,6.10
2018-05-21T01:15:07.710Z,6.37
2018-05-21T01:17:35.858Z,7.40
2018-05-21T01:20:05.058Z,7.20
2018-05-21T01:22:33.216Z,6.33
2018-05-21T01:25:01.372Z,7.33
2018-05-21T01:27:29.551Z,5.90
2018-05-21T01:29:57.706Z,8.43
2018-05-21T01:32:25.878Z,5.77
2018-05-21T01:34:54.043Z,7.60
2018-05-21T01:37:22.209Z,6.23
2018-05-21T01:39:50.394Z,13.10
2018-05-21T01:42:18.561Z,8.70
2018-05-21T01:44:46.700Z,7.97
2018-05-21T01:47:17.271Z,9.40
2018-05-21T01:49:45.433Z,7.30
2018-05-21T01:52:13.592Z,7.93
2018-05-21T01:54:41.751Z,8.23
2018-05-21T01:57:09.899Z,12.15
2018-05-21T01:59:38.074Z,10.97
2018-05-21T02:02:06.217Z,7.47
2018-05-21T02:04:34.378Z,7.97
2018-05-21T02:07:02.547Z,5.97
2018-05-21T02:09:30.694Z,6.40
2018-05-21T02:11:58.854Z,8.03
2018-05-21T02:14:27.020Z,11.73
2018-05-21T02:16:55.162Z,7.83
2018-05-21T02:19:24.381Z,11.30
2018-05-21T02:21:52.545Z,7.27
2018-05-21T02:24:20.722Z,7.73
2018-05-21T02:26:48.888Z,9.80
2018-05-21T02:29:17.040Z,9.10
2018-05-21T02:31:52.097Z,6.77
2018-05-21T02:34:20.262Z,8.13
2018-05-21T02:36:48.420Z,6.87
2018-05-21T02:39:16.574Z,7.23
2018-05-21T02:41:44.792Z,7.60
2018-05-21T02:44:16.289Z,11.73
2018-05-21T02:46:44.459Z,8.03
2018-05-21T02:51:53.679Z,8.23
2018-05-21T02:54:24.800Z,8.80
2018-05-21T02:56:52.939Z,9.90
2018-05-21T02:59:27.627Z,8.10
2018-05-21T03:01:55.793Z,9.73
2018-05-21T03:04:23.967Z,8.00
2018-05-21T03:06:52.133Z,9.13
2018-05-21T03:09:20.325Z,10.03
2018-05-21T03:11:48.473Z,7.33
2018-05-21T03:14:26.953Z,7.47
2018-05-21T03:16:55.113Z,10.07
2018-05-21T03:19:23.253Z,9.20
2018-05-21T03:21:51.413Z,9.30
2018-05-21T03:24:19.564Z,9.20
2018-05-21T03:26:47.751Z,8.00
2018-05-21T03:29:15.891Z,11.60
2018-05-21T03:31:44.056Z,7.62
2018-05-21T03:34:12.205Z,9.48
2018-05-21T03:36:40.742Z,8.23
2018-05-21T03:39:08.889Z,7.82
2018-05-21T03:41:37.037Z,8.00
2018-05-21T03:44:05.206Z,10.07
2018-05-21T03:46:33.372Z,10.57
2018-05-21T03:49:01.545Z,7.97
2018-05-21T03:51:29.703Z,9.63
2018-05-21T03:53:57.855Z,8.87
2018-05-21T03:56:29.389Z,10.53
2018-05-21T03:59:10.215Z,9.10
2018-05-21T04:01:50.206Z,10.47
2018-05-21T04:04:18.392Z,9.37
2018-05-21T04:06:46.539Z,10.00
2018-05-21T04:09:18.552Z,12.50
2018-05-21T04:11:46.748Z,10.37
2018-05-21T04:14:21.426Z,9.03
2018-05-21T04:16:49.558Z,9.70
2018-05-21T04:19:17.712Z,8.27
2018-05-21T04:21:49.365Z,9.67
2018-05-21T04:24:24.080Z,9.20
2018-05-21T04:26:52.245Z,9.40
2018-05-21T04:29:20.398Z,9.57
2018-05-21T04:31:48.554Z,10.88
2018-05-21T04:34:16.724Z,10.55
2018-05-21T04:36:44.876Z,11.70
2018-05-21T04:39:25.486Z,8.47
2018-05-21T04:41:53.648Z,10.17
2018-05-21T04:44:29.534Z,12.80
2018-05-21T04:46:57.698Z,11.47
2018-05-21T04:49:25.864Z,9.73
2018-05-21T04:51:54.034Z,8.30
2018-05-21T04:54:23.834Z,10.33
2018-05-21T04:56:51.997Z,9.97
2018-05-21T04:59:20.161Z,10.10
2018-05-21T05:01:48.336Z,10.80
2018-05-21T05:04:16.501Z,11.33
2018-05-21T05:06:50.594Z,9.00
2018-05-21T05:09:18.771Z,9.47
2018-05-21T05:11:46.936Z,8.13
2018-05-21T05:14:15.078Z,8.75
2018-05-21T05:16:43.242Z,9.97
2018-05-21T05:19:11.412Z,8.90
2018-05-21T05:21:39.602Z,7.87
2018-05-21T05:24:07.752Z,8.45
2018-05-21T05:26:35.932Z,10.20
2018-05-21T05:29:04.078Z,8.60
2018-05-21T05:31:32.259Z,9.80
2018-05-21T05:34:00.417Z,9.23
2018-05-21T05:36:28.580Z,10.17
2018-05-21T05:38:56.728Z,9.03
2018-05-21T05:41:28.708Z,9.67
2018-05-21T05:43:56.859Z,8.50
2018-05-21T05:46:25.016Z,10.20
2018-05-21T05:48:53.192Z,8.70
2018-05-21T05:51:25.181Z,11.83
2018-05-21T05:53:53.334Z,8.80
2018-05-21T05:56:21.489Z,14.77
2018-05-21T05:58:49.658Z,10.13
2018-05-21T06:01:17.805Z,9.73
2018-05-21T06:03:45.997Z,13.80
2018-05-21T06:06:14.152Z,8.87
2018-05-21T06:08:44.750Z,10.13
2018-05-21T06:11:12.912Z,10.18
2018-05-21T06:13:41.166Z,9.20
2018-05-21T06:16:15.213Z,8.57
2018-05-21T06:18:43.390Z,7.65
2018-05-21T06:21:11.556Z,8.10
2018-05-21T06:23:39.698Z,11.30
2018-05-21T06:26:07.860Z,8.17
2018-05-21T06:28:36.008Z,11.67
2018-05-21T06:31:04.189Z,10.40
2018-05-21T06:33:32.331Z,10.67
2018-05-21T06:36:00.488Z,7.00
2018-05-21T06:38:28.644Z,7.37
2018-05-21T06:40:56.843Z,11.60
2018-05-21T06:43:25.608Z,7.50
2018-05-21T06:45:53.791Z,11.50
2018-05-21T06:48:23.225Z,7.63
2018-05-21T06:50:51.364Z,7.77
2018-05-21T06:53:25.936Z,7.60
2018-05-21T06:55:54.091Z,8.30
2018-05-21T06:58:22.244Z,9.63
2018-05-21T07:00:50.386Z,7.47
2018-05-21T07:03:18.554Z,8.10
2018-05-21T07:05:46.738Z,7.90
2018-05-21T07:08:14.861Z,8.80
2018-05-21T07:10:43.015Z,7.07
2018-05-21T07:13:11.181Z,8.07
2018-05-21T07:15:45.045Z,8.68
2018-05-21T07:18:14.356Z,8.73
2018-05-21T07:20:42.479Z,6.80
2018-05-21T07:23:24.167Z,7.20
2018-05-21T07:25:52.308Z,7.00
2018-05-21T07:28:20.442Z,8.23
2018-05-21T07:30:48.617Z,9.70
2018-05-21T07:33:24.100Z,8.50
2018-05-21T07:35:52.278Z,7.07
2018-05-21T07:38:23.012Z,8.73
2018-05-21T07:40:51.179Z,7.00
2018-05-21T07:43:19.348Z,10.40
2018-05-21T07:45:47.508Z,9.17
2018-05-21T07:48:15.651Z,11.30
2018-05-21T07:50:43.886Z,7.80
2018-05-21T07:53:12.327Z,7.83
2018-05-21T07:55:40.475Z,6.37
2018-05-21T07:58:08.701Z,6.10
2018-05-21T08:00:36.807Z,6.47
2018-05-21T08:03:05.553Z,7.30
2018-05-21T08:05:33.733Z,7.30
2018-05-21T08:08:01.899Z,8.93
2018-05-21T08:10:33.270Z,7.97
2018-05-21T08:13:01.434Z,6.83
2018-05-21T08:15:35.417Z,7.07
2018-05-21T08:18:03.648Z,7.77
2018-05-21T08:20:31.801Z,6.40
2018-05-21T08:22:59.969Z,7.67
2018-05-21T08:25:28.115Z,6.40
2018-05-21T08:27:56.280Z,8.97
2018-05-21T08:30:24.423Z,6.13
2018-05-21T08:32:52.579Z,7.10
2018-05-21T08:35:20.735Z,14.30
2018-05-21T08:37:48.885Z,6.30
2018-05-21T08:40:17.051Z,7.28
2018-05-21T08:42:45.236Z,8.03
2018-05-21T08:45:13.363Z,9.80
2018-05-21T08:47:41.549Z,6.70
2018-05-21T08:50:09.684Z,7.63
2018-05-21T08:52:37.838Z,6.27
2018-05-21T08:55:06.724Z,5.87
2018-05-21T08:57:34.885Z,7.43
2018-05-21T09:00:03.029Z,6.40
2018-05-21T09:02:31.197Z,8.13
2018-05-21T09:04:59.363Z,8.47
2018-05-21T09:07:27.532Z,5.97
2018-05-21T09:09:55.672Z,7.10
2018-05-21T09:12:24.547Z,6.60
2018-05-21T09:14:52.710Z,5.50
2018-05-21T09:17:20.851Z,6.90
2018-05-21T09:19:49.027Z,5.85
2018-05-21T09:22:17.209Z,6.93
2018-05-21T09:24:45.373Z,6.07
2018-05-21T09:27:13.504Z,5.70
2018-05-21T09:29:41.682Z,4.97
2018-05-21T09:32:09.831Z,6.90
2018-05-21T09:34:38.001Z,11.47
2018-05-21T09:37:06.155Z,7.60
2018-05-21T09:39:34.330Z,9.50
2018-05-21T09:42:02.490Z,5.23
2018-05-21T09:44:36.696Z,6.07
2018-05-21T09:47:04.845Z,5.60
2018-05-21T09:49:32.969Z,7.83
2018-05-21T09:52:01.141Z,6.13
2018-05-21T09:54:35.874Z,8.00
2018-05-21T09:57:04.027Z,9.23
2018-05-21T09:59:32.205Z,9.07
2018-05-21T10:02:00.358Z,5.93
2018-05-21T10:04:28.502Z,9.97
2018-05-21T10:06:56.670Z,6.43
2018-05-21T10:09:24.805Z,5.80
2018-05-21T10:11:52.968Z,8.20
2018-05-21T10:14:21.125Z,6.80
2018-05-21T10:16:50.208Z,6.60
2018-05-21T10:19:18.428Z,8.10
2018-05-21T10:21:46.542Z,6.43
2018-05-21T10:24:14.697Z,6.07
2018-05-21T10:26:42.856Z,5.60
2018-05-21T10:29:11.019Z,9.20
2018-05-21T10:31:39.650Z,8.47
2018-05-21T10:34:07.803Z,6.07
2018-05-21T10:36:35.966Z,8.73
2018-05-21T10:39:04.137Z,13.03
2018-05-21T10:41:32.295Z,6.50
2018-05-21T10:44:00.444Z,5.23
2018-05-21T10:46:28.626Z,7.80
2018-05-21T10:48:56.852Z,5.10
2018-05-21T10:51:25.113Z,7.23
2018-05-21T10:53:53.198Z,5.17
2018-05-21T10:56:21.402Z,7.17
2018-05-21T10:58:49.491Z,7.00
2018-05-21T11:01:17.648Z,7.20
2018-05-21T11:03:45.796Z,6.57
2018-05-21T11:06:14.648Z,5.23
2018-05-21T11:08:42.782Z,5.00
2018-05-21T11:11:10.942Z,5.10
2018-05-21T11:13:39.115Z,4.33
2018-05-21T11:16:07.261Z,8.27
2018-05-21T11:18:35.423Z,5.97
2018-05-21T11:21:13.698Z,6.70
2018-05-21T11:23:41.864Z,4.63
2018-05-21T11:26:10.961Z,6.03
2018-05-21T11:28:42.196Z,5.10
2018-05-21T11:31:10.853Z,4.03
2018-05-21T11:33:39.025Z,4.57
2018-05-21T11:36:07.176Z,5.83
2018-05-21T11:38:35.323Z,4.97
2018-05-21T11:41:03.494Z,4.80
2018-05-21T11:43:31.655Z,4.60
2018-05-21T11:45:59.851Z,6.40
2018-05-21T11:48:31.150Z,5.27
2018-05-21T11:50:59.301Z,6.33
2018-05-21T11:53:27.630Z,5.17
2018-05-21T11:55:55.802Z,4.80
2018-05-21T11:58:23.932Z,4.32
2018-05-21T12:00:52.110Z,4.13
2018-05-21T12:03:20.260Z,3.70
2018-05-21T12:05:48.414Z,8.10
2018-05-21T12:08:16.582Z,5.17
2018-05-21T12:10:44.726Z,4.80
2018-05-21T12:13:12.910Z,4.47
2018-05-21T12:15:42.410Z,4.13
2018-05-21T12:18:10.599Z,4.60
2018-05-21T12:20:38.753Z,4.50
2018-05-21T12:23:06.903Z,4.50
2018-05-21T12:25:35.110Z,4.53
2018-05-21T12:28:06.228Z,4.17
2018-05-21T12:30:34.366Z,4.27
2018-05-21T12:33:02.538Z,4.47
2018-05-21T12:35:30.699Z,4.23
2018-05-21T12:37:58.841Z,7.60
2018-05-21T12:40:27.013Z,4.70
2018-05-21T12:42:55.166Z,6.50
2018-05-21T12:45:23.328Z,5.23
2018-05-21T12:47:51.478Z,5.17
2018-05-21T12:50:19.641Z,4.57
2018-05-21T12:52:47.780Z,6.13
2018-05-21T12:55:24.450Z,6.00
2018-05-21T12:57:52.598Z,4.10
2018-05-21T13:00:20.766Z,4.60
2018-05-21T13:02:48.932Z,4.43
2018-05-21T13:05:20.588Z,4.03
2018-05-21T13:07:48.746Z,4.20
2018-05-21T13:10:16.923Z,4.40
2018-05-21T13:12:45.092Z,3.70
2018-05-21T13:15:14.184Z,4.30
2018-05-21T13:17:42.266Z,4.13
2018-05-21T13:20:15.040Z,4.93
2018-05-21T13:22:43.205Z,4.00
2018-05-21T13:25:15.244Z,4.82
2018-05-21T13:27:43.409Z,5.27
2018-05-21T13:30:11.560Z,5.30
2018-05-21T13:32:39.729Z,4.43
2018-05-21T13:35:14.267Z,4.40
2018-05-21T13:37:42.464Z,3.90
2018-05-21T13:40:12.168Z,5.13
2018-05-21T13:42:43.561Z,3.67
2018-05-21T13:45:14.754Z,5.43
2018-05-21T13:47:42.982Z,5.90
2018-05-21T13:50:11.396Z,4.50
2018-05-21T13:52:46.043Z,3.57
2018-05-21T13:55:15.109Z,4.20
2018-05-21T13:57:43.273Z,5.13
2018-05-21T14:00:11.415Z,4.10
2018-05-21T14:02:39.571Z,3.57
2018-05-21T14:05:08.055Z,3.50
2018-05-21T14:07:36.211Z,4.33
2018-05-21T14:10:04.389Z,8.90
2018-05-21T14:12:32.617Z,7.40
2018-05-21T14:15:00.697Z,4.20
2018-05-21T14:17:28.852Z,3.70
2018-05-21T14:19:57.027Z,3.17
2018-05-21T14:22:25.177Z,3.10
2018-05-21T14:24:53.315Z,3.08
2018-05-21T14:27:23.236Z,5.18
2018-05-21T14:29:51.498Z,3.70
2018-05-21T14:32:19.588Z,3.63
2018-05-21T14:34:47.764Z,3.37
2018-05-21T14:37:17.242Z,3.37
2018-05-21T14:39:46.319Z,3.70
2018-05-21T14:42:14.482Z,3.03
2018-05-21T14:44:42.620Z,3.27
2018-05-21T14:47:11.623Z,6.10
2018-05-21T14:49:39.785Z,3.50
2018-05-21T14:52:07.923Z,3.10
2018-05-21T14:54:36.085Z,3.83
2018-05-21T14:57:04.240Z,3.30
2018-05-21T14:59:32.403Z,3.25
2018-05-21T15:02:00.559Z,2.87
2018-05-21T15:04:28.714Z,3.63
2018-05-21T15:06:56.863Z,3.23
2018-05-21T15:09:25.023Z,4.10
2018-05-21T15:11:53.174Z,2.90
2018-05-21T15:14:21.915Z,2.70
2018-05-21T15:16:50.118Z,2.73
2018-05-21T15:19:18.432Z,2.50
2018-05-21T15:21:47.827Z,2.63
2018-05-21T15:24:16.000Z,4.40
2018-05-21T15:26:44.182Z,3.07
2018-05-21T15:29:12.314Z,4.60
2018-05-21T15:31:40.881Z,4.00
2018-05-21T15:34:09.052Z,5.40
2018-05-21T15:36:37.226Z,4.63
2018-05-21T15:39:05.403Z,2.73
2018-05-21T15:41:33.565Z,2.90
2018-05-21T15:44:01.775Z,3.17
2018-05-21T15:46:29.971Z,3.20
2018-05-21T15:48:58.157Z,3.53
2018-05-21T15:51:26.297Z,3.55
2018-05-21T15:53:54.465Z,3.43
2018-05-21T15:56:22.597Z,4.10
2018-05-21T15:58:50.747Z,5.13
2018-05-21T16:01:19.421Z,4.07
2018-05-21T16:03:47.604Z,3.47
2018-05-21T16:06:15.772Z,3.40
2018-05-21T16:08:43.929Z,3.93
2018-05-21T16:11:12.870Z,3.03
2018-05-21T16:13:41.024Z,3.70
2018-05-21T16:16:09.192Z,3.30
2018-05-21T16:18:37.347Z,3.50
2018-05-21T16:21:05.510Z,4.73
2018-05-21T16:23:33.874Z,3.57
2018-05-21T16:26:02.061Z,8.02
2018-05-21T16:28:30.214Z,3.80
2018-05-21T16:30:58.392Z,4.30
2018-05-21T16:33:26.547Z,4.60
2018-05-21T16:35:54.710Z,6.03
2018-05-21T16:38:26.401Z,6.67
2018-05-21T16:40:54.574Z,5.50
2018-05-21T16:43:22.737Z,3.90
2018-05-21T16:45:50.878Z,3.77
2018-05-21T16:48:19.036Z,4.70
2018-05-21T16:50:47.194Z,5.03
2018-05-21T16:53:15.357Z,4.33
2018-05-21T16:55:45.362Z,4.07
2018-05-21T16:58:13.564Z,3.97
2018-05-21T17:00:41.716Z,4.97
2018-05-21T17:03:09.896Z,4.20
2018-05-21T17:05:38.033Z,4.45
2018-05-21T17:08:06.181Z,4.18
2018-05-21T17:10:34.341Z,4.68
2018-05-21T17:13:02.500Z,4.33
2018-05-21T17:15:30.673Z,4.55
2018-05-21T17:17:58.854Z,3.57
2018-05-21T17:20:27.052Z,3.67
2018-05-21T17:22:55.747Z,4.53
2018-05-21T17:25:23.923Z,4.47
2018-05-21T17:27:52.084Z,4.70
2018-05-21T17:30:20.264Z,4.20
2018-05-21T17:32:48.443Z,6.03
2018-05-21T17:35:16.629Z,5.43
2018-05-21T17:37:44.779Z,7.33
2018-05-21T17:40:16.723Z,4.60
2018-05-21T17:42:44.895Z,5.50
2018-05-21T17:45:13.065Z,6.50
2018-05-21T17:47:41.291Z,6.90
2018-05-21T17:50:09.668Z,9.10
2018-05-21T17:52:37.831Z,5.50
2018-05-21T17:55:06.017Z,5.30
2018-05-21T17:57:34.179Z,5.25
2018-05-21T18:00:04.749Z,6.32
2018-05-21T18:02:32.892Z,8.53
2018-05-21T18:05:01.069Z,5.33
2018-05-21T18:07:29.231Z,7.10
2018-05-21T18:09:57.396Z,5.43
2018-05-21T18:12:26.192Z,5.90
2018-05-21T18:14:54.401Z,5.00
2018-05-21T18:17:22.545Z,5.87
2018-05-21T18:19:50.709Z,5.70
2018-05-21T18:22:25.760Z,5.70
2018-05-21T18:24:53.914Z,5.53
2018-05-21T18:27:22.113Z,6.10
2018-05-21T18:29:50.265Z,4.93
2018-05-21T18:32:25.172Z,5.23
2018-05-21T18:34:53.332Z,5.70
2018-05-21T18:37:21.493Z,4.93
2018-05-21T18:39:49.650Z,5.63
2018-05-21T18:42:17.831Z,8.40
2018-05-21T18:44:45.956Z,9.13
2018-05-21T18:47:14.864Z,4.00
2018-05-21T18:49:43.047Z,6.20
2018-05-21T18:52:11.217Z,7.30
2018-05-21T18:54:39.389Z,7.87
2018-05-21T18:57:11.133Z,7.95
2018-05-21T18:59:39.350Z,12.83
2018-05-21T19:02:07.528Z,6.73
2018-05-21T19:04:35.682Z,6.10
2018-05-21T19:07:03.839Z,7.50
2018-05-21T19:09:32.032Z,5.10
2018-05-21T19:12:00.206Z,6.70
2018-05-21T19:14:28.397Z,5.37
2018-05-21T19:16:56.748Z,8.85
2018-05-21T19:19:25.820Z,5.30
2018-05-21T19:21:53.997Z,4.70
2018-05-21T19:24:22.216Z,6.03
2018-05-21T19:26:51.131Z,4.93
2018-05-21T19:29:19.298Z,4.80
2018-05-21T19:31:47.478Z,5.30
2018-05-21T19:34:15.634Z,4.27
2018-05-21T19:36:45.017Z,4.60
2018-05-21T19:39:13.213Z,6.00
2018-05-21T19:41:41.365Z,8.93
2018-05-21T19:44:15.277Z,5.07
2018-05-21T19:46:46.976Z,5.53
2018-05-21T19:49:15.145Z,6.30
2018-05-21T19:51:43.302Z,5.57
2018-05-21T19:54:17.604Z,6.90
2018-05-21T19:56:45.749Z,5.70
2018-05-21T19:59:14.736Z,6.60
2018-05-21T20:01:42.915Z,8.15
2018-05-21T20:04:11.083Z,8.27
2018-05-21T20:06:46.156Z,7.00
2018-05-21T20:09:14.329Z,7.13
2018-05-21T20:11:42.491Z,6.60
2018-05-21T20:14:10.629Z,8.52
2018-05-21T20:16:38.826Z,8.80
2018-05-21T20:19:06.994Z,8.13
2018-05-21T20:21:35.150Z,5.50
2018-05-21T20:24:03.304Z,8.93
2018-05-21T20:26:31.472Z,12.52
2018-05-21T20:28:59.637Z,9.20
2018-05-21T20:31:37.457Z,7.23
2018-05-21T20:34:05.613Z,7.03
2018-05-21T20:36:37.393Z,6.90
2018-05-21T20:39:06.349Z,8.37
2018-05-21T20:41:35.685Z,7.97
2018-05-21T20:44:03.854Z,6.90
2018-05-21T20:46:32.001Z,6.33
2018-05-21T20:49:00.163Z,11.37
2018-05-21T20:51:28.344Z,10.10
2018-05-21T20:53:57.468Z,13.98
2018-05-21T20:56:25.656Z,8.00
2018-05-21T20:58:53.819Z,9.17
2018-05-21T21:01:22.060Z,9.60
2018-05-21T21:03:50.175Z,7.10
2018-05-21T21:06:18.333Z,7.80
2018-05-21T21:08:46.517Z,12.00
2018-05-21T21:11:14.665Z,8.20
2018-05-21T21:13:42.822Z,6.78
2018-05-21T21:16:16.980Z,6.20
2018-05-21T21:18:45.172Z,6.18
2018-05-21T21:21:13.311Z,11.90
2018-05-21T21:23:41.467Z,7.90
2018-05-21T21:26:09.614Z,6.57
2018-05-21T21:28:38.047Z,5.80
2018-05-21T21:31:06.986Z,6.63
2018-05-21T21:33:35.130Z,8.43
2018-05-21T21:36:03.313Z,13.33
2018-05-21T21:38:31.462Z,7.73
2018-05-21T21:40:59.644Z,14.03
2018-05-21T21:43:27.781Z,10.07
2018-05-21T21:45:55.948Z,10.97
2018-05-21T21:48:24.108Z,9.23
2018-05-21T21:50:52.537Z,7.07
2018-05-21T21:53:20.688Z,8.50
2018-05-21T21:55:48.827Z,8.33
2018-05-21T21:58:16.981Z,7.90
2018-05-21T22:00:45.131Z,5.20
2018-05-21T22:03:13.342Z,5.90
2018-05-21T22:05:43.882Z,7.80
2018-05-21T22:08:12.082Z,6.80
2018-05-21T22:10:40.226Z,6.23
2018-05-21T22:13:08.395Z,5.40
2018-05-21T22:15:37.488Z,7.60
2018-05-21T22:18:05.657Z,10.20
2018-05-21T22:20:33.826Z,9.30
2018-05-21T22:23:01.986Z,7.22
2018-05-21T22:25:30.155Z,7.93
2018-05-21T22:27:58.320Z,7.05
2018-05-21T22:30:26.463Z,7.45
2018-05-21T22:32:54.626Z,6.87
2018-05-21T22:35:22.779Z,8.03
2018-05-21T22:37:50.933Z,7.47
2018-05-21T22:40:19.091Z,9.20
2018-05-21T22:42:47.622Z,6.50
2018-05-21T22:45:16.626Z,7.40
2018-05-21T22:47:44.875Z,6.80
2018-05-21T22:50:13.003Z,7.33
2018-05-21T22:52:41.169Z,7.60
2018-05-21T22:55:09.571Z,6.43
2018-05-21T22:57:37.709Z,6.80
2018-05-21T23:00:05.878Z,5.97
2018-05-21T23:02:34.052Z,5.67
2018-05-21T23:05:08.807Z,6.00
2018-05-21T23:07:36.976Z,6.47
2018-05-21T23:10:05.113Z,6.67
2018-05-21T23:12:33.281Z,5.57
2018-05-21T23:15:01.440Z,5.47
2018-05-21T23:17:29.598Z,5.68
2018-05-21T23:19:57.739Z,5.68
2018-05-21T23:22:37.665Z,5.40
2018-05-21T23:25:05.820Z,5.33
2018-05-21T23:27:42.477Z,9.13
2018-05-21T23:30:10.643Z,5.60
2018-05-21T23:32:38.793Z,9.60
2018-05-21T23:35:06.957Z,5.73
2018-05-21T23:37:35.144Z,7.30
2018-05-21T23:40:03.290Z,7.25
2018-05-21T23:42:31.463Z,5.28
2018-05-21T23:44:59.956Z,7.33
2018-05-21T23:47:28.117Z,8.20
2018-05-21T23:49:56.251Z,6.33
2018-05-21T23:52:24.399Z,7.33
2018-05-21T23:54:52.568Z,6.15
2018-05-21T23:57:20.738Z,7.33
2018-05-21T23:59:48.879Z,7.40
